sensor_id;sensor_type;location;lat;lon;timestamp;pressure;altitude;pressure_sealevel;temperature;humidity
61676;BME280;47574;52.090;5.244;2023-05-20T00:01:26;102517.0;;;18.98;42.77
61676;BME280;47574;52.090;5.244;2023-05-20T00:04:39;102511.99999999999;;;19.16;42.38
61676;BME280;47574;52.090;5.244;2023-05-20T00:06:15;102509.99999999999;;;19.06;42.66
61676;BME280;47574;52.090;5.244;2023-05-20T00:07:51;102513.00000000001;;;19.05;42.78
61676;BME280;47574;52.090;5.244;2023-05-20T00:11:04;102506.0;;;19.14;42.61
61676;BME280;47574;52.090;5.244;2023-05-20T00:12:40;102503.0;;;19.11;42.77
61676;BME280;47574;52.090;5.244;2023-05-20T00:14:16;102504.0;;;18.91;43.11
61676;BME280;47574;52.090;5.244;2023-05-20T00:17:29;102506.0;;;18.96;43.09
61676;BME280;47574;52.090;5.244;2023-05-20T00:20:42;102508.99999999999;;;18.84;43.47
61676;BME280;47574;52.090;5.244;2023-05-20T00:22:18;102511.99999999999;;;18.95;43.31
61676;BME280;47574;52.090;5.244;2023-05-20T00:25:30;102508.0;;;18.84;43.56
61676;BME280;47574;52.090;5.244;2023-05-20T00:27:06;102508.0;;;18.93;43.4
61676;BME280;47574;52.090;5.244;2023-05-20T00:28:43;102508.0;;;18.75;43.9
61676;BME280;47574;52.090;5.244;2023-05-20T00:31:55;102507.0;;;18.91;43.59
61676;BME280;47574;52.090;5.244;2023-05-20T00:33:31;102508.0;;;18.91;43.57
61676;BME280;47574;52.090;5.244;2023-05-20T00:35:08;102508.0;;;18.88;43.64
61676;BME280;47574;52.090;5.244;2023-05-20T00:38:20;102506.0;;;18.84;43.78
61676;BME280;47574;52.090;5.244;2023-05-20T00:39:56;102506.0;;;18.64;44.28
61676;BME280;47574;52.090;5.244;2023-05-20T00:41:32;102504.0;;;18.71;44.14
61676;BME280;47574;52.090;5.244;2023-05-20T00:44:44;102504.0;;;18.79;43.97
61676;BME280;47574;52.090;5.244;2023-05-20T00:46:21;102504.0;;;18.78;43.96
61676;BME280;47574;52.090;5.244;2023-05-20T00:47:59;102508.99999999999;;;18.71;44.15
61676;BME280;47574;52.090;5.244;2023-05-20T00:49:36;102507.0;;;18.7;44.17
61676;BME280;47574;52.090;5.244;2023-05-20T00:52:48;102505.0;;;18.79;43.88
61676;BME280;47574;52.090;5.244;2023-05-20T00:54:25;102497.0;;;18.71;44.1
61676;BME280;47574;52.090;5.244;2023-05-20T00:56:01;102499.0;;;18.66;44.08
61676;BME280;47574;52.090;5.244;2023-05-20T00:59:15;102494.0;;;18.68;44.23
61676;BME280;47574;52.090;5.244;2023-05-20T01:00:50;102497.0;;;18.68;44.25
61676;BME280;47574;52.090;5.244;2023-05-20T01:02:27;102496.0;;;18.66;44.28
61676;BME280;47574;52.090;5.244;2023-05-20T01:05:40;102490.00000000001;;;18.53;44.46
61676;BME280;47574;52.090;5.244;2023-05-20T01:07:17;102483.99999999999;;;18.59;44.43
61676;BME280;47574;52.090;5.244;2023-05-20T01:08:53;102492.0;;;18.66;44.36
61676;BME280;47574;52.090;5.244;2023-05-20T01:10:30;102492.0;;;18.53;44.62
61676;BME280;47574;52.090;5.244;2023-05-20T01:15:32;102479.0;;;18.52;44.65
61676;BME280;47574;52.090;5.244;2023-05-20T01:17:10;102481.0;;;18.66;44.42
61676;BME280;47574;52.090;5.244;2023-05-20T01:18:48;102480.0;;;18.59;44.33
61676;BME280;47574;52.090;5.244;2023-05-20T01:22:05;102481.0;;;18.7;44.37
61676;BME280;47574;52.090;5.244;2023-05-20T01:23:43;102473.0;;;18.59;44.57
61676;BME280;47574;52.090;5.244;2023-05-20T01:25:19;102475.0;;;18.5;44.85
61676;BME280;47574;52.090;5.244;2023-05-20T01:28:33;102475.0;;;18.38;45.11
61676;BME280;47574;52.090;5.244;2023-05-20T01:30:11;102473.0;;;18.47;44.97
61676;BME280;47574;52.090;5.244;2023-05-20T01:31:47;102471.0;;;18.5;44.93
61676;BME280;47574;52.090;5.244;2023-05-20T01:33:26;102468.0;;;18.34;45.29
61676;BME280;47574;52.090;5.244;2023-05-20T01:36:44;102467.0;;;18.37;45.09
61676;BME280;47574;52.090;5.244;2023-05-20T01:38:22;102464.00000000001;;;18.47;44.92
61676;BME280;47574;52.090;5.244;2023-05-20T01:39:59;102458.99999999999;;;18.25;45.46
61676;BME280;47574;52.090;5.244;2023-05-20T01:43:13;102458.0;;;18.3;45.23
61676;BME280;47574;52.090;5.244;2023-05-20T01:44:50;102455.0;;;18.43;44.94
61676;BME280;47574;52.090;5.244;2023-05-20T01:46:26;102453.0;;;18.25;45.32
61676;BME280;47574;52.090;5.244;2023-05-20T01:48:02;102454.0;;;18.23;45.19
61676;BME280;47574;52.090;5.244;2023-05-20T01:51:14;102454.0;;;18.32;45.12
61676;BME280;47574;52.090;5.244;2023-05-20T01:52:50;102456.0;;;18.3;45.13
61676;BME280;47574;52.090;5.244;2023-05-20T01:54:27;102455.0;;;18.43;44.82
61676;BME280;47574;52.090;5.244;2023-05-20T01:57:40;102457.0;;;18.45;44.77
61676;BME280;47574;52.090;5.244;2023-05-20T01:59:16;102454.0;;;18.16;45.32
61676;BME280;47574;52.090;5.244;2023-05-20T02:00:52;102453.0;;;18.22;45.2
61676;BME280;47574;52.090;5.244;2023-05-20T02:04:05;102456.0;;;18.34;45.01
61676;BME280;47574;52.090;5.244;2023-05-20T02:05:41;102454.0;;;18.36;44.89
61676;BME280;47574;52.090;5.244;2023-05-20T02:07:17;102456.0;;;18.39;44.85
61676;BME280;47574;52.090;5.244;2023-05-20T02:10:30;102453.0;;;18.34;45.01
61676;BME280;47574;52.090;5.244;2023-05-20T02:12:07;102451.0;;;18.25;45.12
61676;BME280;47574;52.090;5.244;2023-05-20T02:13:44;102450.0;;;18.3;44.98
61676;BME280;47574;52.090;5.244;2023-05-20T02:15:20;102451.0;;;18.34;44.93
61676;BME280;47574;52.090;5.244;2023-05-20T02:18:32;102455.0;;;18.23;45.24
61676;BME280;47574;52.090;5.244;2023-05-20T02:20:09;102455.0;;;18.09;45.52
61676;BME280;47574;52.090;5.244;2023-05-20T02:21:46;102461.99999999999;;;18.03;45.75
61676;BME280;47574;52.090;5.244;2023-05-20T02:24:58;102456.0;;;18.14;45.58
61676;BME280;47574;52.090;5.244;2023-05-20T02:26:34;102456.0;;;18.23;45.32
61676;BME280;47574;52.090;5.244;2023-05-20T02:28:10;102455.0;;;18.18;45.49
61676;BME280;47574;52.090;5.244;2023-05-20T02:31:23;102455.0;;;18.16;45.49
61676;BME280;47574;52.090;5.244;2023-05-20T02:32:59;102451.0;;;18.09;45.62
61676;BME280;47574;52.090;5.244;2023-05-20T02:34:35;102450.0;;;18.03;45.77
61676;BME280;47574;52.090;5.244;2023-05-20T02:36:11;102454.0;;;17.91;46.04
61676;BME280;47574;52.090;5.244;2023-05-20T02:39:24;102448.0;;;18.02;45.79
61676;BME280;47574;52.090;5.244;2023-05-20T02:41:00;102447.0;;;18.02;45.83
61676;BME280;47574;52.090;5.244;2023-05-20T02:42:36;102446.0;;;17.97;45.94
61676;BME280;47574;52.090;5.244;2023-05-20T02:45:49;102445.0;;;17.91;46.08
61676;BME280;47574;52.090;5.244;2023-05-20T02:47:26;102441.00000000001;;;17.87;46.24
61676;BME280;47574;52.090;5.244;2023-05-20T02:49:02;102442.0;;;17.84;46.27
61676;BME280;47574;52.090;5.244;2023-05-20T02:52:14;102440.00000000001;;;17.84;46.33
61676;BME280;47574;52.090;5.244;2023-05-20T02:53:51;102434.99999999999;;;17.91;46.24
61676;BME280;47574;52.090;5.244;2023-05-20T02:55:27;102430.0;;;17.98;46.13
61676;BME280;47574;52.090;5.244;2023-05-20T02:58:39;102432.0;;;18.11;45.82
61676;BME280;47574;52.090;5.244;2023-05-20T03:00:15;102434.99999999999;;;17.84;46.39
61676;BME280;47574;52.090;5.244;2023-05-20T03:01:51;102434.99999999999;;;17.88;46.38
61676;BME280;47574;52.090;5.244;2023-05-20T03:03:28;102436.99999999999;;;17.89;46.35
61676;BME280;47574;52.090;5.244;2023-05-20T03:06:41;102442.0;;;17.77;46.63
61676;BME280;47574;52.090;5.244;2023-05-20T03:08:19;102443.0;;;17.79;46.66
61676;BME280;47574;52.090;5.244;2023-05-20T03:09:56;102443.0;;;17.63;47.03
61676;BME280;47574;52.090;5.244;2023-05-20T03:13:08;102443.0;;;17.82;46.64
61676;BME280;47574;52.090;5.244;2023-05-20T03:14:44;102444.0;;;17.8;46.74
61676;BME280;47574;52.090;5.244;2023-05-20T03:16:20;102444.0;;;17.89;46.45
61676;BME280;47574;52.090;5.244;2023-05-20T03:19:33;102441.00000000001;;;17.81;46.64
61676;BME280;47574;52.090;5.244;2023-05-20T03:21:10;102445.0;;;17.71;46.91
61676;BME280;47574;52.090;5.244;2023-05-20T03:22:46;102444.0;;;17.68;47.06
61676;BME280;47574;52.090;5.244;2023-05-20T03:24:22;102450.0;;;17.68;47.08
61676;BME280;47574;52.090;5.244;2023-05-20T03:27:34;102449.0;;;17.57;47.36
61676;BME280;47574;52.090;5.244;2023-05-20T03:29:11;102447.0;;;17.61;47.22
61676;BME280;47574;52.090;5.244;2023-05-20T03:30:47;102443.0;;;17.63;47.26
61676;BME280;47574;52.090;5.244;2023-05-20T03:33:59;102446.0;;;17.61;47.29
61676;BME280;47574;52.090;5.244;2023-05-20T03:35:35;102447.0;;;17.45;47.71
61676;BME280;47574;52.090;5.244;2023-05-20T03:37:11;102453.0;;;17.45;47.6
61676;BME280;47574;52.090;5.244;2023-05-20T03:40:24;102445.0;;;17.7;47.15
61676;BME280;47574;52.090;5.244;2023-05-20T03:42:00;102447.0;;;17.59;47.39
61676;BME280;47574;52.090;5.244;2023-05-20T03:43:36;102442.0;;;17.39;47.94
61676;BME280;47574;52.090;5.244;2023-05-20T03:45:13;102438.00000000001;;;17.45;47.85
61676;BME280;47574;52.090;5.244;2023-05-20T03:48:25;102442.0;;;17.48;47.78
61676;BME280;47574;52.090;5.244;2023-05-20T03:50:01;102443.0;;;17.41;47.95
61676;BME280;47574;52.090;5.244;2023-05-20T03:54:50;102446.0;;;17.56;47.64
61676;BME280;47574;52.090;5.244;2023-05-20T03:56:26;102445.0;;;17.56;47.67
61676;BME280;47574;52.090;5.244;2023-05-20T03:58:02;102443.0;;;17.64;47.52
61676;BME280;47574;52.090;5.244;2023-05-20T04:01:14;102443.0;;;17.61;47.65
61676;BME280;47574;52.090;5.244;2023-05-20T04:02:51;102444.0;;;17.62;47.65
61676;BME280;47574;52.090;5.244;2023-05-20T04:04:27;102443.0;;;17.61;47.74
61676;BME280;47574;52.090;5.244;2023-05-20T04:07:39;102440.00000000001;;;17.5;47.98
61676;BME280;47574;52.090;5.244;2023-05-20T04:09:15;102441.00000000001;;;17.18;48.91
61676;BME280;47574;52.090;5.244;2023-05-20T04:10:54;102440.00000000001;;;17.38;48.48
61676;BME280;47574;52.090;5.244;2023-05-20T04:12:31;102436.99999999999;;;17.52;48.19
61676;BME280;47574;52.090;5.244;2023-05-20T04:15:43;102436.99999999999;;;17.52;48.25
61676;BME280;47574;52.090;5.244;2023-05-20T04:17:19;102434.99999999999;;;17.48;48.39
61676;BME280;47574;52.090;5.244;2023-05-20T04:18:56;102436.99999999999;;;17.56;48.34
61676;BME280;47574;52.090;5.244;2023-05-20T04:22:08;102438.00000000001;;;17.52;48.4
61676;BME280;47574;52.090;5.244;2023-05-20T04:23:44;102441.00000000001;;;17.52;48.43
61676;BME280;47574;52.090;5.244;2023-05-20T04:25:20;102443.0;;;17.52;48.6
61676;BME280;47574;52.090;5.244;2023-05-20T04:28:33;102445.0;;;17.61;48.35
61676;BME280;47574;52.090;5.244;2023-05-20T04:30:10;102444.0;;;17.73;48.09
61676;BME280;47574;52.090;5.244;2023-05-20T04:31:46;102442.0;;;17.61;48.39
61676;BME280;47574;52.090;5.244;2023-05-20T04:33:22;102444.0;;;17.77;48.1
61676;BME280;47574;52.090;5.244;2023-05-20T04:36:34;102443.0;;;17.66;48.36
61676;BME280;47574;52.090;5.244;2023-05-20T04:38:11;102446.0;;;17.79;48.2
61676;BME280;47574;52.090;5.244;2023-05-20T04:39:47;102446.0;;;17.77;48.25
61676;BME280;47574;52.090;5.244;2023-05-20T04:42:59;102450.0;;;17.91;47.97
61676;BME280;47574;52.090;5.244;2023-05-20T04:44:35;102447.0;;;18.06;47.5
61676;BME280;47574;52.090;5.244;2023-05-20T04:46:12;102448.0;;;18.0;47.8
61676;BME280;47574;52.090;5.244;2023-05-20T04:49:24;102446.0;;;18.11;47.39
61676;BME280;47574;52.090;5.244;2023-05-20T04:51:00;102450.0;;;18.12;47.28
61676;BME280;47574;52.090;5.244;2023-05-20T04:52:38;102451.0;;;18.03;47.54
61676;BME280;47574;52.090;5.244;2023-05-20T04:54:15;102450.0;;;18.11;47.38
61676;BME280;47574;52.090;5.244;2023-05-20T04:57:29;102448.0;;;18.11;47.26
61676;BME280;47574;52.090;5.244;2023-05-20T04:59:05;102446.0;;;18.13;47.25
61676;BME280;47574;52.090;5.244;2023-05-20T05:00:42;102447.0;;;18.34;46.9
61676;BME280;47574;52.090;5.244;2023-05-20T05:03:55;102445.0;;;18.39;46.83
61676;BME280;47574;52.090;5.244;2023-05-20T05:05:31;102446.0;;;18.34;46.91
61676;BME280;47574;52.090;5.244;2023-05-20T05:07:07;102444.0;;;18.37;46.92
61676;BME280;47574;52.090;5.244;2023-05-20T05:10:20;102447.0;;;18.21;47.12
61676;BME280;47574;52.090;5.244;2023-05-20T05:11:56;102448.0;;;18.45;46.72
61676;BME280;47574;52.090;5.244;2023-05-20T05:13:32;102442.0;;;18.48;46.63
61676;BME280;47574;52.090;5.244;2023-05-20T05:16:45;102443.0;;;18.43;46.62
61676;BME280;47574;52.090;5.244;2023-05-20T05:18:21;102442.0;;;18.5;46.42
61676;BME280;47574;52.090;5.244;2023-05-20T05:19:58;102447.0;;;18.41;46.73
61676;BME280;47574;52.090;5.244;2023-05-20T05:21:34;102446.0;;;18.55;46.65
61676;BME280;47574;52.090;5.244;2023-05-20T05:24:46;102446.0;;;18.27;46.93
61676;BME280;47574;52.090;5.244;2023-05-20T05:26:22;102445.0;;;18.41;46.62
61676;BME280;47574;52.090;5.244;2023-05-20T05:27:59;102439.00000000001;;;18.59;46.29
61676;BME280;47574;52.090;5.244;2023-05-20T05:31:11;102433.99999999999;;;18.53;46.31
61676;BME280;47574;52.090;5.244;2023-05-20T05:32:47;102428.0;;;18.84;45.81
61676;BME280;47574;52.090;5.244;2023-05-20T05:34:23;102431.0;;;18.82;45.64
61676;BME280;47574;52.090;5.244;2023-05-20T05:37:36;102422.0;;;18.84;45.54
61676;BME280;47574;52.090;5.244;2023-05-20T05:39:12;102425.0;;;18.95;45.45
61676;BME280;47574;52.090;5.244;2023-05-20T05:40:48;102427.0;;;18.98;45.22
61676;BME280;47574;52.090;5.244;2023-05-20T05:42:24;102423.0;;;19.0;45.37
61676;BME280;47574;52.090;5.244;2023-05-20T05:45:37;102424.0;;;19.0;45.44
61676;BME280;47574;52.090;5.244;2023-05-20T05:47:14;102427.0;;;18.98;45.29
61676;BME280;47574;52.090;5.244;2023-05-20T05:48:50;102427.0;;;18.91;45.13
61676;BME280;47574;52.090;5.244;2023-05-20T05:52:03;102428.0;;;18.68;45.45
61676;BME280;47574;52.090;5.244;2023-05-20T05:53:39;102426.0;;;18.95;45.01
61676;BME280;47574;52.090;5.244;2023-05-20T05:55:15;102425.0;;;18.91;45.05
61676;BME280;47574;52.090;5.244;2023-05-20T05:58:28;102427.0;;;19.21;44.64
61676;BME280;47574;52.090;5.244;2023-05-20T06:00:05;102426.0;;;19.05;45.01
61676;BME280;47574;52.090;5.244;2023-05-20T06:01:43;102427.0;;;19.14;44.73
61676;BME280;47574;52.090;5.244;2023-05-20T06:03:19;102419.0;;;19.25;44.51
61676;BME280;47574;52.090;5.244;2023-05-20T06:06:32;102420.0;;;19.36;44.35
61676;BME280;47574;52.090;5.244;2023-05-20T06:08:08;102419.0;;;19.28;44.28
61676;BME280;47574;52.090;5.244;2023-05-20T06:09:45;102421.0;;;19.31;44.25
61676;BME280;47574;52.090;5.244;2023-05-20T06:12:57;102420.0;;;19.45;43.92
61676;BME280;47574;52.090;5.244;2023-05-20T06:14:33;102417.0;;;19.52;43.87
61676;BME280;47574;52.090;5.244;2023-05-20T06:16:09;102418.0;;;19.5;43.96
61676;BME280;47574;52.090;5.244;2023-05-20T06:19:22;102424.0;;;19.61;43.61
61676;BME280;47574;52.090;5.244;2023-05-20T06:20:58;102419.0;;;19.36;43.87
61676;BME280;47574;52.090;5.244;2023-05-20T06:22:35;102419.0;;;19.56;43.6
61676;BME280;47574;52.090;5.244;2023-05-20T06:24:11;102421.0;;;19.45;43.41
61676;BME280;47574;52.090;5.244;2023-05-20T06:27:25;102417.0;;;19.68;43.13
61676;BME280;47574;52.090;5.244;2023-05-20T06:29:01;102420.0;;;19.45;43.66
61676;BME280;47574;52.090;5.244;2023-05-20T06:30:37;102419.0;;;19.72;43.34
61676;BME280;47574;52.090;5.244;2023-05-20T06:33:49;102423.0;;;19.7;43.29
61676;BME280;47574;52.090;5.244;2023-05-20T06:35:26;102419.0;;;19.89;43.02
61676;BME280;47574;52.090;5.244;2023-05-20T06:37:02;102423.0;;;20.09;42.81
61676;BME280;47574;52.090;5.244;2023-05-20T06:40:14;102421.0;;;19.86;43.13
61676;BME280;47574;52.090;5.244;2023-05-20T06:41:50;102423.0;;;20.11;42.77
61676;BME280;47574;52.090;5.244;2023-05-20T06:43:26;102420.0;;;20.14;42.55
61676;BME280;47574;52.090;5.244;2023-05-20T06:46:41;102421.0;;;20.14;42.65
61676;BME280;47574;52.090;5.244;2023-05-20T06:48:17;102416.00000000001;;;20.2;42.52
61676;BME280;47574;52.090;5.244;2023-05-20T06:49:53;102418.0;;;20.31;42.28
61676;BME280;47574;52.090;5.244;2023-05-20T06:51:29;102417.0;;;20.28;42.53
61676;BME280;47574;52.090;5.244;2023-05-20T06:54:41;102409.99999999999;;;20.2;42.35
61676;BME280;47574;52.090;5.244;2023-05-20T06:56:18;102411.99999999999;;;20.28;42.24
61676;BME280;47574;52.090;5.244;2023-05-20T06:57:54;102407.0;;;20.69;41.67
61676;BME280;47574;52.090;5.244;2023-05-20T07:01:06;102406.0;;;20.59;41.79
61676;BME280;47574;52.090;5.244;2023-05-20T07:02:42;102403.0;;;20.76;41.76
61676;BME280;47574;52.090;5.244;2023-05-20T07:04:19;102400.0;;;20.67;41.53
61676;BME280;47574;52.090;5.244;2023-05-20T07:07:31;102402.0;;;20.67;41.5
61676;BME280;47574;52.090;5.244;2023-05-20T07:09:07;102398.0;;;21.01;41.01
61676;BME280;47574;52.090;5.244;2023-05-20T07:10:43;102397.0;;;20.98;41.12
61676;BME280;47574;52.090;5.244;2023-05-20T07:12:20;102393.0;;;21.02;40.96
61676;BME280;47574;52.090;5.244;2023-05-20T07:15:33;102395.0;;;20.9;41.63
61676;BME280;47574;52.090;5.244;2023-05-20T07:17:10;102391.0;;;21.12;40.93
61676;BME280;47574;52.090;5.244;2023-05-20T07:18:46;102392.0;;;21.23;40.74
61676;BME280;47574;52.090;5.244;2023-05-20T07:21:59;102392.0;;;20.75;40.92
61676;BME280;47574;52.090;5.244;2023-05-20T07:23:35;102391.0;;;21.13;40.35
61676;BME280;47574;52.090;5.244;2023-05-20T07:25:11;102382.0;;;21.37;39.99
61676;BME280;47574;52.090;5.244;2023-05-20T07:28:23;102387.0;;;21.19;40.51
61676;BME280;47574;52.090;5.244;2023-05-20T07:29:59;102384.0;;;21.37;40.26
61676;BME280;47574;52.090;5.244;2023-05-20T07:31:35;102376.0;;;21.65;39.53
61676;BME280;47574;52.090;5.244;2023-05-20T07:34:48;102380.0;;;21.46;39.74
61676;BME280;47574;52.090;5.244;2023-05-20T07:36:25;102372.0;;;21.6;39.25
61676;BME280;47574;52.090;5.244;2023-05-20T07:38:01;102376.0;;;21.98;38.68
61676;BME280;47574;52.090;5.244;2023-05-20T07:39:37;102370.0;;;21.81;38.99
61676;BME280;47574;52.090;5.244;2023-05-20T07:42:50;102370.0;;;21.63;38.54
61676;BME280;47574;52.090;5.244;2023-05-20T07:44:26;102371.0;;;21.87;38.07
61676;BME280;47574;52.090;5.244;2023-05-20T07:46:02;102371.0;;;22.01;37.92
61676;BME280;47574;52.090;5.244;2023-05-20T07:49:15;102367.0;;;21.85;37.71
61676;BME280;47574;52.090;5.244;2023-05-20T07:50:52;102365.0;;;21.85;37.76
61676;BME280;47574;52.090;5.244;2023-05-20T07:52:28;102360.0;;;22.0;37.54
61676;BME280;47574;52.090;5.244;2023-05-20T07:55:41;102356.0;;;22.05;37.28
61676;BME280;47574;52.090;5.244;2023-05-20T07:57:17;102356.0;;;21.98;37.56
61676;BME280;47574;52.090;5.244;2023-05-20T07:58:56;102355.0;;;22.0;37.49
61676;BME280;47574;52.090;5.244;2023-05-20T08:00:32;102358.0;;;22.08;37.33
61676;BME280;47574;52.090;5.244;2023-05-20T08:03:44;102350.0;;;22.15;36.69
61676;BME280;47574;52.090;5.244;2023-05-20T08:05:20;102350.0;;;22.15;36.67
61676;BME280;47574;52.090;5.244;2023-05-20T08:06:56;102352.0;;;22.16;36.46
61676;BME280;47574;52.090;5.244;2023-05-20T08:10:09;102346.0;;;22.33;35.92
61676;BME280;47574;52.090;5.244;2023-05-20T08:11:46;102343.0;;;22.27;36.47
61676;BME280;47574;52.090;5.244;2023-05-20T08:13:22;102347.0;;;21.98;36.25
61676;BME280;47574;52.090;5.244;2023-05-20T08:16:36;102343.0;;;22.18;35.67
61676;BME280;47574;52.090;5.244;2023-05-20T08:18:13;102341.0;;;22.26;35.83
61676;BME280;47574;52.090;5.244;2023-05-20T08:19:49;102344.0;;;22.39;36.08
61676;BME280;47574;52.090;5.244;2023-05-20T08:21:25;102340.0;;;22.34;36.53
61676;BME280;47574;52.090;5.244;2023-05-20T08:24:37;102341.0;;;22.16;36.14
61676;BME280;47574;52.090;5.244;2023-05-20T08:26:13;102341.0;;;22.16;36.14
61676;BME280;47574;52.090;5.244;2023-05-20T08:27:50;102344.0;;;22.31;36.11
61676;BME280;47574;52.090;5.244;2023-05-20T08:31:02;102348.0;;;22.65;35.54
61676;BME280;47574;52.090;5.244;2023-05-20T08:32:38;102342.0;;;22.8;35.42
61676;BME280;47574;52.090;5.244;2023-05-20T08:34:14;102339.0;;;22.59;35.33
61676;BME280;47574;52.090;5.244;2023-05-20T08:37:27;102330.0;;;22.64;34.85
61676;BME280;47574;52.090;5.244;2023-05-20T08:39:03;102331.0;;;22.7;35.28
61676;BME280;47574;52.090;5.244;2023-05-20T08:40:39;102326.0;;;22.57;34.64
61676;BME280;47574;52.090;5.244;2023-05-20T08:43:58;102330.0;;;22.39;34.56
61676;BME280;47574;52.090;5.244;2023-05-20T08:45:37;102326.0;;;22.57;33.79
61676;BME280;47574;52.090;5.244;2023-05-20T08:47:13;102326.0;;;22.45;33.53
61676;BME280;47574;52.090;5.244;2023-05-20T08:48:49;102327.0;;;22.23;33.39
61676;BME280;47574;52.090;5.244;2023-05-20T08:52:03;102315.0;;;22.3;33.35
61676;BME280;47574;52.090;5.244;2023-05-20T08:53:39;102311.0;;;22.35;33.36
61676;BME280;47574;52.090;5.244;2023-05-20T08:55:17;102313.0;;;22.69;32.92
61676;BME280;47574;52.090;5.244;2023-05-20T08:57:01;102303.0;;;22.8;32.5
61676;BME280;47574;52.090;5.244;2023-05-20T09:00:14;102301.0;;;23.01;32.5
61676;BME280;47574;52.090;5.244;2023-05-20T09:01:50;102301.0;;;22.95;32.1
61676;BME280;47574;52.090;5.244;2023-05-20T09:03:27;102306.0;;;22.77;31.88
61676;BME280;47574;52.090;5.244;2023-05-20T09:06:42;102301.0;;;23.08;31.91
61676;BME280;47574;52.090;5.244;2023-05-20T09:08:19;102293.0;;;23.38;31.86
61676;BME280;47574;52.090;5.244;2023-05-20T09:09:59;102296.0;;;23.12;31.89
61676;BME280;47574;52.090;5.244;2023-05-20T09:11:36;102305.0;;;22.89;31.93
61676;BME280;47574;52.090;5.244;2023-05-20T09:16:24;102305.0;;;23.22;31.46
61676;BME280;47574;52.090;5.244;2023-05-20T09:18:01;102297.0;;;23.49;31.36
61676;BME280;47574;52.090;5.244;2023-05-20T09:21:14;102299.0;;;23.25;30.98
61676;BME280;47574;52.090;5.244;2023-05-20T09:22:50;102294.0;;;23.27;31.3
61676;BME280;47574;52.090;5.244;2023-05-20T09:24:27;102293.0;;;23.52;31.23
61676;BME280;47574;52.090;5.244;2023-05-20T09:27:39;102292.0;;;23.37;31.11
61676;BME280;47574;52.090;5.244;2023-05-20T09:29:16;102282.0;;;23.41;31.05
61676;BME280;47574;52.090;5.244;2023-05-20T09:30:56;102281.0;;;23.53;31.17
61676;BME280;47574;52.090;5.244;2023-05-20T09:32:33;102283.0;;;23.85;30.94
61676;BME280;47574;52.090;5.244;2023-05-20T09:35:48;102276.0;;;23.92;30.63
61676;BME280;47574;52.090;5.244;2023-05-20T09:37:26;102273.0;;;23.47;30.83
61676;BME280;47574;52.090;5.244;2023-05-20T09:42:21;102280.0;;;23.94;30.62
61676;BME280;47574;52.090;5.244;2023-05-20T09:43:59;102268.0;;;23.7;29.56
61676;BME280;47574;52.090;5.244;2023-05-20T09:45:34;102268.0;;;23.66;29.91
61676;BME280;47574;52.090;5.244;2023-05-20T09:47:14;102269.0;;;23.75;30.18
61676;BME280;47574;52.090;5.244;2023-05-20T09:50:27;102272.0;;;23.76;29.94
61676;BME280;47574;52.090;5.244;2023-05-20T09:52:05;102272.0;;;23.89;29.7
61676;BME280;47574;52.090;5.244;2023-05-20T09:53:42;102273.0;;;23.6;29.22
61676;BME280;47574;52.090;5.244;2023-05-20T09:57:01;102269.0;;;23.56;29.54
61676;BME280;47574;52.090;5.244;2023-05-20T09:58:39;102273.0;;;23.33;29.79
61676;BME280;47574;52.090;5.244;2023-05-20T10:00:16;102261.0;;;23.42;29.22
61676;BME280;47574;52.090;5.244;2023-05-20T10:01:52;102272.0;;;23.29;29.71
61676;BME280;47574;52.090;5.244;2023-05-20T10:05:08;102270.0;;;23.49;29.53
61676;BME280;47574;52.090;5.244;2023-05-20T10:07:04;102262.0;;;23.63;29.65
61676;BME280;47574;52.090;5.244;2023-05-20T10:09:04;102266.0;;;23.75;29.63
61676;BME280;47574;52.090;5.244;2023-05-20T10:10:51;102268.0;;;23.78;29.69
61676;BME280;47574;52.090;5.244;2023-05-20T10:12:35;102274.0;;;23.85;29.76
61676;BME280;47574;52.090;5.244;2023-05-20T10:14:35;102265.0;;;23.71;30.03
61676;BME280;47574;52.090;5.244;2023-05-20T10:18:10;102261.0;;;23.86;29.84
61676;BME280;47574;52.090;5.244;2023-05-20T10:19:57;102253.0;;;23.65;29.61
61676;BME280;47574;52.090;5.244;2023-05-20T10:21:33;102260.0;;;23.32;30.12
61676;BME280;47574;52.090;5.244;2023-05-20T10:23:19;102256.0;;;23.19;30.34
61676;BME280;47574;52.090;5.244;2023-05-20T10:24:57;102257.0;;;23.28;30.41
61676;BME280;47574;52.090;5.244;2023-05-20T10:28:12;102242.0;;;23.06;30.57
61676;BME280;47574;52.090;5.244;2023-05-20T10:29:50;102243.0;;;23.48;29.76
61676;BME280;47574;52.090;5.244;2023-05-20T10:31:27;102247.0;;;23.72;29.72
61676;BME280;47574;52.090;5.244;2023-05-20T10:34:45;102238.0;;;23.64;29.79
61676;BME280;47574;52.090;5.244;2023-05-20T10:36:25;102233.0;;;23.61;29.99
61676;BME280;47574;52.090;5.244;2023-05-20T10:38:07;102218.0;;;23.16;30.57
61676;BME280;47574;52.090;5.244;2023-05-20T10:39:44;102225.0;;;23.84;30.23
61676;BME280;47574;52.090;5.244;2023-05-20T10:43:08;102218.0;;;23.72;30.21
61676;BME280;47574;52.090;5.244;2023-05-20T10:44:45;102213.0;;;23.35;30.72
61676;BME280;47574;52.090;5.244;2023-05-20T10:46:22;102218.0;;;23.34;30.33
61676;BME280;47574;52.090;5.244;2023-05-20T10:47:58;102223.0;;;23.29;30.62
61676;BME280;47574;52.090;5.244;2023-05-20T10:51:14;102230.0;;;23.29;30.79
61676;BME280;47574;52.090;5.244;2023-05-20T10:52:50;102236.0;;;23.72;30.22
61676;BME280;47574;52.090;5.244;2023-05-20T10:54:26;102225.0;;;23.62;30.43
61676;BME280;47574;52.090;5.244;2023-05-20T10:57:39;102231.0;;;23.77;30.66
61676;BME280;47574;52.090;5.244;2023-05-20T10:59:16;102224.0;;;23.64;30.4
61676;BME280;47574;52.090;5.244;2023-05-20T11:00:53;102217.0;;;23.91;30.41
61676;BME280;47574;52.090;5.244;2023-05-20T11:02:31;102209.0;;;24.35;29.91
61676;BME280;47574;52.090;5.244;2023-05-20T11:05:44;102214.0;;;24.45;29.97
61676;BME280;47574;52.090;5.244;2023-05-20T11:07:25;102210.0;;;24.5;29.73